Time;durP1;ratioP1;P1;durP2;ratioP2;P2;SDS_P1;SDS_P2;PMS_P1;PMS_P2;Temp;Humidity;BMP_temperature;BMP_pressure;BME280_temperature;BME280_humidity;BME280_pressure;Samples;Min_cycle;Max_cycle;Signal;HPM_P1;HPM_P2
2021/12/12 00:01:08;;;;;;;;;;;-1.20;99.90;;;;;;2631519;54;19992;-78
2021/12/12 00:03:45;;;;;;;;;;;-1.20;99.90;;;;;;2631902;54;19950;-78
2021/12/12 00:06:23;;;;;;;;;;;-1.20;99.90;;;;;;2631860;54;19923;-79
2021/12/12 00:08:56;;;;;;;;;;;-1.20;99.90;;;;;;2631599;54;19918;-78
2021/12/12 00:11:30;;;;;;;;;;;-1.20;99.90;;;;;;2632235;46;19946;-79
2021/12/12 00:14:06;;;;;;;;;;;-1.20;99.90;;;;;;2631449;54;19925;-79
2021/12/12 00:16:39;;;;;;;;;;;-1.20;99.90;;;;;;2630396;54;20631;-79
2021/12/12 00:19:09;;;;;;;;;;;-1.20;99.90;;;;;;2636446;39;20409;-78
2021/12/12 00:21:42;;;;;;;;;;;-1.30;99.90;;;;;;2631845;54;19947;-79
2021/12/12 00:24:13;;;;;;;;;;;-1.30;99.90;;;;;;2631620;54;19951;-78
2021/12/12 00:26:51;;;;;;;;;;;-1.30;99.90;;;;;;2631653;54;20478;-79
2021/12/12 00:29:26;;;;;;;;;;;-1.40;99.90;;;;;;2640064;46;19946;-78
2021/12/12 00:32:08;;;;;;;;;;;-1.40;99.90;;;;;;2631461;54;19939;-77
2021/12/12 00:34:40;;;;;;;;;;;-1.40;99.90;;;;;;2631469;54;20418;-77
2021/12/12 00:37:13;;;;;;;;;;;-1.50;99.90;;;;;;2629164;54;19946;31
2021/12/12 00:39:47;;;;;;;;;;;-1.60;99.90;;;;;;2631480;54;19962;-79
2021/12/12 00:42:19;;;;;;;;;;;-1.60;99.90;;;;;;2631373;54;19939;-77
2021/12/12 00:44:54;;;;;;;;;;;-1.60;99.90;;;;;;2631502;54;19938;-77
2021/12/12 00:47:26;;;;;;;;;;;-1.70;99.90;;;;;;2631411;54;19919;-77
2021/12/12 00:50:10;;;;;;;;;;;-1.70;99.90;;;;;;2632600;46;20492;-77
2021/12/12 00:52:42;;;;;;;;;;;-1.70;99.90;;;;;;2631510;54;19962;-79
2021/12/12 00:55:15;;;;;;;;;;;-1.80;99.90;;;;;;2631155;54;19919;-80
2021/12/12 00:57:52;;;;;;;;;;;-1.70;99.90;;;;;;2631074;54;19979;-76
2021/12/12 01:00:36;;;;;;;;;;;-1.80;99.90;;;;;;2631254;54;19942;-77
2021/12/12 01:03:09;;;;;;;;;;;-1.80;99.90;;;;;;2631222;54;19934;-79
2021/12/12 01:05:47;;;;;;;;;;;-1.80;99.90;;;;;;2631596;54;19981;-76
2021/12/12 01:08:20;;;;;;;;;;;-1.80;99.90;;;;;;2631312;54;20448;-79
2021/12/12 01:10:59;;;;;;;;;;;-1.90;99.90;;;;;;2631306;54;19945;-78
2021/12/12 01:13:30;;;;;;;;;;;-1.90;99.90;;;;;;2631288;54;20399;-77
2021/12/12 01:16:09;;;;;;;;;;;-2.00;99.90;;;;;;2639603;39;20390;-78
2021/12/12 01:18:40;;;;;;;;;;;-2.00;99.90;;;;;;2631554;46;20426;-79
2021/12/12 01:21:18;;;;;;;;;;;-2.00;99.90;;;;;;2631488;54;19945;-79
2021/12/12 01:23:50;;;;;;;;;;;-2.10;99.90;;;;;;2631969;46;19938;-77
2021/12/12 01:26:27;;;;;;;;;;;-2.10;99.90;;;;;;2631331;54;19950;-77
2021/12/12 01:28:59;;;;;;;;;;;-2.20;99.90;;;;;;2631388;54;19943;-76
2021/12/12 01:31:39;;;;;;;;;;;-2.20;99.90;;;;;;2632466;39;20341;-77
2021/12/12 01:34:14;;;;;;;;;;;-2.20;99.90;;;;;;2631559;54;19938;-78
2021/12/12 01:36:53;;;;;;;;;;;-2.20;99.90;;;;;;2631310;54;19927;-78
2021/12/12 01:39:24;;;;;;;;;;;-2.30;99.90;;;;;;2630019;54;19994;-79
2021/12/12 01:41:59;;;;;;;;;;;-2.30;99.90;;;;;;2629400;54;20829;31
2021/12/12 01:44:33;;;;;;;;;;;-2.40;99.90;;;;;;2631204;46;19923;-78
2021/12/12 01:47:13;;;;;;;;;;;-2.40;99.90;;;;;;2632072;46;19945;-79
2021/12/12 01:49:45;;;;;;;;;;;-2.40;99.90;;;;;;2631528;54;20398;-79
2021/12/12 01:52:26;;;;;;;;;;;-2.40;99.90;;;;;;2633342;46;19927;-78
2021/12/12 01:54:58;;;;;;;;;;;-2.50;99.90;;;;;;2631361;54;19923;-78
2021/12/12 01:57:30;;;;;;;;;;;-2.50;99.90;;;;;;2631655;54;19929;-78
2021/12/12 02:00:02;;;;;;;;;;;-2.50;99.90;;;;;;2632361;46;19961;-78
2021/12/12 02:02:43;;;;;;;;;;;-2.50;99.90;;;;;;2622025;54;19946;31
2021/12/12 02:05:16;;;;;;;;;;;-2.60;99.90;;;;;;2631988;46;19934;-77
2021/12/12 02:07:48;;;;;;;;;;;-2.60;99.90;;;;;;2640111;39;20310;-76
2021/12/12 02:10:25;;;;;;;;;;;-2.60;99.90;;;;;;2631507;54;19919;-77
2021/12/12 02:13:03;;;;;;;;;;;-2.70;99.90;;;;;;2631299;54;20530;-77
2021/12/12 02:15:36;;;;;;;;;;;-2.70;99.90;;;;;;2631471;54;19926;-78
2021/12/12 02:18:10;;;;;;;;;;;-2.70;99.90;;;;;;2640522;46;19935;-76
2021/12/12 02:20:54;;;;;;;;;;;-2.70;99.90;;;;;;2631620;46;19939;-79
2021/12/12 02:23:38;;;;;;;;;;;-2.70;99.90;;;;;;2631563;54;19954;-76
2021/12/12 02:37:20;;;;;;;;;;;-2.80;99.90;;;;;;2631751;54;19970;-77
2021/12/12 02:39:54;;;;;;;;;;;-2.70;99.90;;;;;;2632117;46;19938;-77
2021/12/12 02:42:28;;;;;;;;;;;-2.80;99.90;;;;;;2630855;46;19939;-73
2021/12/12 02:45:01;;;;;;;;;;;-2.70;99.90;;;;;;2631380;54;19995;-77
2021/12/12 02:47:43;;;;;;;;;;;-2.80;99.90;;;;;;2631011;54;20501;-76
2021/12/12 02:50:16;;;;;;;;;;;-2.80;99.90;;;;;;2631190;54;19945;-78
2021/12/12 02:52:49;;;;;;;;;;;-2.80;99.90;;;;;;2631096;54;19934;-77
2021/12/12 02:55:24;;;;;;;;;;;-2.80;99.90;;;;;;2633988;46;19934;-77
2021/12/12 02:57:58;;;;;;;;;;;-2.80;99.90;;;;;;2631119;54;20007;-78
2021/12/12 03:00:30;;;;;;;;;;;-2.80;99.90;;;;;;2631296;54;19919;-76
2021/12/12 03:03:03;;;;;;;;;;;-2.80;99.90;;;;;;2631471;46;19930;-78
2021/12/12 03:05:43;;;;;;;;;;;-2.80;99.90;;;;;;2634807;46;19929;-76
2021/12/12 03:08:17;;;;;;;;;;;-2.80;99.90;;;;;;2632122;46;19943;-78
2021/12/12 03:10:51;;;;;;;;;;;-2.80;99.90;;;;;;2631398;54;19962;-77
2021/12/12 03:13:29;;;;;;;;;;;-2.80;99.90;;;;;;2632132;46;20390;-77
2021/12/12 03:16:01;;;;;;;;;;;-2.70;99.90;;;;;;2630758;54;19926;-78
2021/12/12 03:18:41;;;;;;;;;;;-2.70;99.90;;;;;;2630874;54;19943;-76
2021/12/12 03:21:17;;;;;;;;;;;-2.70;99.90;;;;;;2634162;46;20021;-77
2021/12/12 03:23:58;;;;;;;;;;;-2.60;99.90;;;;;;2631159;54;19939;-76
2021/12/12 03:26:32;;;;;;;;;;;-2.60;99.90;;;;;;2630997;47;19942;-77
2021/12/12 03:29:10;;;;;;;;;;;-2.60;99.90;;;;;;2631022;54;20458;-78
2021/12/12 03:31:42;;;;;;;;;;;-2.60;99.90;;;;;;2631605;47;19923;-77
2021/12/12 03:34:13;;;;;;;;;;;-2.50;99.90;;;;;;2623829;47;19941;-76
2021/12/12 03:36:45;;;;;;;;;;;-2.60;99.90;;;;;;2630816;54;19946;-77
2021/12/12 03:39:19;;;;;;;;;;;-2.50;99.90;;;;;;2631282;54;19943;-77
2021/12/12 03:41:53;;;;;;;;;;;-2.50;99.90;;;;;;2630844;54;19991;-77
2021/12/12 03:44:29;;;;;;;;;;;-2.50;99.90;;;;;;2630873;54;19939;-78
2021/12/12 03:47:02;;;;;;;;;;;-2.50;99.90;;;;;;2630945;54;19938;-79
2021/12/12 03:49:37;;;;;;;;;;;-2.50;99.90;;;;;;2631669;47;20434;-79
2021/12/12 03:52:09;;;;;;;;;;;-2.50;99.90;;;;;;2631033;54;19926;-79
2021/12/12 03:54:43;;;;;;;;;;;-2.50;99.90;;;;;;2630947;54;20435;-79
2021/12/12 03:57:17;;;;;;;;;;;-2.50;99.90;;;;;;2630641;54;19952;-78
2021/12/12 03:59:49;;;;;;;;;;;-2.50;99.90;;;;;;2630855;54;19943;-81
2021/12/12 04:02:20;;;;;;;;;;;-2.50;99.90;;;;;;2633588;47;19923;-79
2021/12/12 04:04:52;;;;;;;;;;;-2.50;99.90;;;;;;2630938;54;19919;-78
2021/12/12 04:07:25;;;;;;;;;;;-2.50;99.90;;;;;;2630909;54;19927;-78
2021/12/12 04:09:56;;;;;;;;;;;-2.50;99.90;;;;;;2631873;47;20402;-80
2021/12/12 04:12:30;;;;;;;;;;;-2.50;99.90;;;;;;2650277;39;20418;-79
2021/12/12 04:15:14;;;;;;;;;;;-2.50;99.90;;;;;;2631702;47;19942;-78
2021/12/12 04:17:44;;;;;;;;;;;-2.50;99.90;;;;;;2630010;54;19926;-78
2021/12/12 04:20:32;;;;;;;;;;;-2.50;99.90;;;;;;2630233;54;19968;-79
2021/12/12 04:23:04;;;;;;;;;;;-2.50;99.90;;;;;;2635214;39;20491;-80
2021/12/12 04:25:49;;;;;;;;;;;-2.50;99.90;;;;;;2630239;47;19938;-79
2021/12/12 04:28:24;;;;;;;;;;;-2.50;99.90;;;;;;2629892;54;19945;-78
2021/12/12 04:31:11;;;;;;;;;;;-2.50;99.90;;;;;;2630245;54;19982;-80
2021/12/12 04:33:43;;;;;;;;;;;-2.50;99.90;;;;;;2630659;54;19919;-78
2021/12/12 04:36:16;;;;;;;;;;;-2.50;99.90;;;;;;2628771;54;19935;-78
2021/12/12 04:38:47;;;;;;;;;;;-2.50;99.90;;;;;;2643405;31;20417;-76
2021/12/12 04:41:37;;;;;;;;;;;-2.50;99.90;;;;;;2629860;54;20043;-78
2021/12/12 04:44:15;;;;;;;;;;;-2.50;99.90;;;;;;2629773;54;19943;-78
2021/12/12 04:52:15;;;;;;;;;;;-2.60;99.90;;;;;;2632340;46;19926;-79
2021/12/12 04:54:48;;;;;;;;;;;-2.60;99.90;;;;;;2630250;54;19986;-78
2021/12/12 04:57:22;;;;;;;;;;;-2.60;99.90;;;;;;2630370;54;19927;-78
2021/12/12 04:59:59;;;;;;;;;;;-2.60;99.90;;;;;;2630133;46;19982;-78
2021/12/12 05:02:32;;;;;;;;;;;-2.60;99.90;;;;;;2629881;54;19965;-77
2021/12/12 05:05:05;;;;;;;;;;;-2.60;99.90;;;;;;2631002;39;20626;-79
2021/12/12 05:07:44;;;;;;;;;;;-2.60;99.90;;;;;;2630001;54;19973;-78
2021/12/12 05:10:21;;;;;;;;;;;-2.60;99.90;;;;;;2631180;46;20923;-78
2021/12/12 05:12:53;;;;;;;;;;;-2.70;99.90;;;;;;2629946;54;19930;-78
2021/12/12 05:15:27;;;;;;;;;;;-2.70;99.90;;;;;;2629765;54;19943;-78
2021/12/12 05:17:58;;;;;;;;;;;-2.80;99.90;;;;;;2629899;54;19938;-80
2021/12/12 05:20:30;;;;;;;;;;;-2.80;99.90;;;;;;2630583;54;20432;-79
2021/12/12 05:23:04;;;;;;;;;;;-2.80;99.90;;;;;;2630780;54;19935;-77
2021/12/12 05:25:38;;;;;;;;;;;-2.90;99.90;;;;;;2630971;54;19946;-79
2021/12/12 05:28:18;;;;;;;;;;;-2.90;99.90;;;;;;2632967;46;20002;-79
2021/12/12 05:30:53;;;;;;;;;;;-3.00;99.90;;;;;;2633579;46;19950;-79
2021/12/12 05:33:27;;;;;;;;;;;-3.00;99.90;;;;;;2631107;54;19942;-79
2021/12/12 05:35:58;;;;;;;;;;;-3.10;99.90;;;;;;2631444;46;20412;-79
2021/12/12 05:38:31;;;;;;;;;;;-3.10;99.90;;;;;;2630380;54;19949;-78
2021/12/12 05:41:02;;;;;;;;;;;-3.10;99.90;;;;;;2631134;54;19930;-79
2021/12/12 05:43:38;;;;;;;;;;;-3.20;99.90;;;;;;2630948;46;20531;-78
2021/12/12 05:46:14;;;;;;;;;;;-3.20;99.90;;;;;;2630641;54;19935;-79
2021/12/12 05:48:45;;;;;;;;;;;-3.30;99.90;;;;;;2635620;39;20303;-79
2021/12/12 05:51:18;;;;;;;;;;;-3.30;99.90;;;;;;2630575;46;19983;-78
2021/12/12 05:53:51;;;;;;;;;;;-3.30;99.90;;;;;;2630637;54;19938;-79
2021/12/12 05:56:23;;;;;;;;;;;-3.40;99.90;;;;;;2630614;54;20482;-78
2021/12/12 05:58:55;;;;;;;;;;;-3.40;99.90;;;;;;2630945;54;19946;-77
2021/12/12 06:01:29;;;;;;;;;;;-3.30;99.90;;;;;;2631232;46;19935;-81
2021/12/12 06:04:02;;;;;;;;;;;-3.30;99.90;;;;;;2630863;54;19923;-78
2021/12/12 06:06:35;;;;;;;;;;;-3.30;99.90;;;;;;2630616;54;19939;-80
2021/12/12 06:09:08;;;;;;;;;;;-3.30;99.90;;;;;;2630635;54;19950;-79
2021/12/12 06:11:41;;;;;;;;;;;-3.30;99.90;;;;;;2630988;54;19923;-78
2021/12/12 06:14:13;;;;;;;;;;;-3.30;99.90;;;;;;2630697;54;19939;-79
2021/12/12 06:16:47;;;;;;;;;;;-3.30;99.90;;;;;;2631583;46;19939;-77
2021/12/12 06:19:20;;;;;;;;;;;-3.30;99.90;;;;;;2631625;46;20407;-80
2021/12/12 06:21:52;;;;;;;;;;;-3.30;99.90;;;;;;2630604;54;19933;-77
2021/12/12 06:24:31;;;;;;;;;;;-3.30;99.90;;;;;;2630408;54;19939;-78
2021/12/12 06:27:04;;;;;;;;;;;-3.20;99.90;;;;;;2630523;54;19938;-79
2021/12/12 06:29:40;;;;;;;;;;;-3.20;99.90;;;;;;2630397;54;20443;-79
2021/12/12 06:32:13;;;;;;;;;;;-3.20;99.90;;;;;;2632475;46;20374;-77
2021/12/12 06:34:45;;;;;;;;;;;-3.30;99.90;;;;;;2630574;54;19963;-79
2021/12/12 06:37:15;;;;;;;;;;;-3.30;99.90;;;;;;2630308;46;19953;-79
2021/12/12 06:39:48;;;;;;;;;;;-3.30;99.90;;;;;;2629353;54;19966;-77
2021/12/12 06:42:19;;;;;;;;;;;-3.30;99.90;;;;;;2630274;54;19933;-79
2021/12/12 06:44:51;;;;;;;;;;;-3.20;99.90;;;;;;2631017;46;19949;-78
2021/12/12 06:47:32;;;;;;;;;;;-3.20;99.90;;;;;;2630500;54;20442;-77
2021/12/12 06:50:03;;;;;;;;;;;-3.20;99.90;;;;;;2632034;39;20338;-79
2021/12/12 06:52:35;;;;;;;;;;;-3.20;99.90;;;;;;2630181;54;19995;-78
2021/12/12 06:55:06;;;;;;;;;;;-3.20;99.90;;;;;;2630591;54;20406;-78
2021/12/12 06:57:39;;;;;;;;;;;-3.30;99.90;;;;;;2631368;46;19943;-78
2021/12/12 07:00:12;;;;;;;;;;;-3.20;99.90;;;;;;2630134;54;19942;-77
2021/12/12 07:02:48;;;;;;;;;;;-3.20;99.90;;;;;;2630280;54;19945;-78
2021/12/12 07:05:21;;;;;;;;;;;-3.20;99.90;;;;;;2631270;46;19943;-78
2021/12/12 07:07:52;;;;;;;;;;;-3.20;99.90;;;;;;2631006;46;19991;-77
2021/12/12 07:10:24;;;;;;;;;;;-3.20;99.90;;;;;;2632413;39;20806;-78
2021/12/12 07:13:06;;;;;;;;;;;-3.20;99.90;;;;;;2631252;46;19939;-79
2021/12/12 07:15:38;;;;;;;;;;;-3.20;99.90;;;;;;2630566;54;19930;-78
2021/12/12 07:18:15;;;;;;;;;;;-3.20;99.90;;;;;;2630052;54;19938;-77
2021/12/12 07:20:46;;;;;;;;;;;-3.30;99.90;;;;;;2634703;39;20334;-79
2021/12/12 07:23:17;;;;;;;;;;;-3.30;99.90;;;;;;2629989;54;19943;-78
2021/12/12 07:25:48;;;;;;;;;;;-3.30;99.90;;;;;;2630257;54;20387;-78
2021/12/12 07:28:19;;;;;;;;;;;-3.30;99.90;;;;;;2630187;54;19994;-78
2021/12/12 07:31:00;;;;;;;;;;;-3.30;99.90;;;;;;2630083;54;20425;-79
2021/12/12 07:33:34;;;;;;;;;;;-3.30;99.90;;;;;;2631359;46;20007;-78
2021/12/12 07:36:06;;;;;;;;;;;-3.30;99.90;;;;;;2630087;54;19941;-78
2021/12/12 07:38:37;;;;;;;;;;;-3.30;99.90;;;;;;2634416;39;20545;-80
2021/12/12 07:41:08;;;;;;;;;;;-3.30;99.90;;;;;;2630571;46;20509;-79
2021/12/12 07:43:40;;;;;;;;;;;-3.30;99.90;;;;;;2629890;54;19939;-78
2021/12/12 07:46:12;;;;;;;;;;;-3.30;99.90;;;;;;2630095;47;19938;-78
2021/12/12 07:48:52;;;;;;;;;;;-3.40;99.90;;;;;;2630112;54;19943;-78
2021/12/12 07:51:24;;;;;;;;;;;-3.40;99.90;;;;;;2630270;54;19929;-79
2021/12/12 07:53:57;;;;;;;;;;;-3.50;99.90;;;;;;2630362;54;20197;-80
2021/12/12 07:56:30;;;;;;;;;;;-3.50;99.90;;;;;;2631799;47;19966;-80
2021/12/12 07:59:04;;;;;;;;;;;-3.50;99.90;;;;;;2631613;47;19925;-78
2021/12/12 08:01:36;;;;;;;;;;;-3.50;99.90;;;;;;2630228;54;20570;-79
2021/12/12 08:04:21;;;;;;;;;;;-3.50;99.90;;;;;;2630167;54;19943;-78
2021/12/12 08:06:53;;;;;;;;;;;-3.40;99.90;;;;;;2630436;54;19935;-77
2021/12/12 08:09:25;;;;;;;;;;;-3.40;99.90;;;;;;2630382;54;19990;-78
2021/12/12 08:12:04;;;;;;;;;;;-3.30;99.90;;;;;;2630418;54;20433;-78
2021/12/12 08:14:35;;;;;;;;;;;-3.30;99.90;;;;;;2630403;47;20648;-78
2021/12/12 08:17:07;;;;;;;;;;;-3.20;99.90;;;;;;2630423;54;19923;-77
2021/12/12 08:19:41;;;;;;;;;;;-3.20;99.90;;;;;;2630847;54;19942;-77
2021/12/12 08:22:12;;;;;;;;;;;-3.20;99.90;;;;;;2631259;54;19990;-78
2021/12/12 08:24:44;;;;;;;;;;;-3.10;99.90;;;;;;2631165;54;19943;-80
2021/12/12 08:27:16;;;;;;;;;;;-3.10;99.90;;;;;;2631082;54;19942;-78
2021/12/12 08:29:48;;;;;;;;;;;-3.10;99.90;;;;;;2634433;39;20418;-78
2021/12/12 08:32:20;;;;;;;;;;;-3.00;99.90;;;;;;2631191;54;19938;-79
2021/12/12 08:35:14;;;;;;;;;;;-2.90;99.90;;;;;;2630850;54;19950;-78
2021/12/12 08:37:45;;;;;;;;;;;-2.80;99.90;;;;;;2633458;46;19942;-77
2021/12/12 08:40:19;;;;;;;;;;;-2.80;99.90;;;;;;2630804;54;19946;-79
2021/12/12 08:42:50;;;;;;;;;;;-2.70;99.90;;;;;;2630003;54;19982;-77
2021/12/12 08:45:25;;;;;;;;;;;-2.70;99.90;;;;;;2631368;54;20531;-79
2021/12/12 08:48:00;;;;;;;;;;;-2.60;99.90;;;;;;2630909;54;19926;-78
2021/12/12 08:50:36;;;;;;;;;;;-2.60;99.90;;;;;;2631703;46;20008;-77
2021/12/12 08:53:08;;;;;;;;;;;-2.50;99.90;;;;;;2631819;46;19949;-77
2021/12/12 08:55:48;;;;;;;;;;;-2.50;99.90;;;;;;2636192;39;20337;-79
2021/12/12 08:58:21;;;;;;;;;;;-2.50;99.90;;;;;;2631357;54;19933;-78
2021/12/12 09:00:52;;;;;;;;;;;-2.40;99.90;;;;;;2631722;46;20406;-80
2021/12/12 09:03:25;;;;;;;;;;;-2.40;99.90;;;;;;2630609;54;19935;-79
2021/12/12 09:06:03;;;;;;;;;;;-2.30;99.90;;;;;;2630795;54;19983;-78
2021/12/12 09:08:42;;;;;;;;;;;-2.20;99.90;;;;;;2630825;54;19994;-79
2021/12/12 09:11:17;;;;;;;;;;;-2.10;99.90;;;;;;2630863;54;20429;-79
2021/12/12 09:14:00;;;;;;;;;;;-2.00;99.90;;;;;;2630523;54;19930;-78
2021/12/12 09:16:32;;;;;;;;;;;-1.80;99.90;;;;;;2630398;54;19950;-80
2021/12/12 09:19:06;;;;;;;;;;;-1.60;99.90;;;;;;2630463;54;19945;-78
2021/12/12 09:21:48;;;;;;;;;;;-1.30;99.90;;;;;;2629361;54;19938;-80
2021/12/12 09:24:21;;;;;;;;;;;-1.00;99.90;;;;;;2628689;46;19942;-79
2021/12/12 09:26:53;;;;;;;;;;;-0.70;99.90;;;;;;2628034;46;19986;-77
2021/12/12 09:29:25;;;;;;;;;;;-0.40;99.90;;;;;;2627671;54;20047;-79
2021/12/12 09:31:58;;;;;;;;;;;-0.30;99.90;;;;;;2628539;54;20138;-78
2021/12/12 09:34:31;;;;;;;;;;;-0.20;99.90;;;;;;2627858;54;20882;-78
2021/12/12 09:37:20;;;;;;;;;;;-0.20;99.90;;;;;;2629498;46;19934;-77
2021/12/12 09:39:58;;;;;;;;;;;-0.20;99.90;;;;;;2629194;54;19942;-77
2021/12/12 09:42:35;;;;;;;;;;;-0.20;99.90;;;;;;2629462;54;19960;-77
2021/12/12 09:45:14;;;;;;;;;;;-0.30;99.90;;;;;;2630464;46;19943;-76
2021/12/12 09:48:15;;;;;;;;;;;-0.20;99.90;;;;;;2630601;54;19982;-75
2021/12/12 09:51:16;;;;;;;;;;;-0.30;99.90;;;;;;2639197;46;20414;-77
2021/12/12 09:54:00;;;;;;;;;;;-0.30;99.90;;;;;;2635558;39;20465;-78
2021/12/12 09:56:34;;;;;;;;;;;-0.30;99.90;;;;;;2630854;54;19942;-76
2021/12/12 09:59:06;;;;;;;;;;;-0.20;99.90;;;;;;2630618;54;19934;-78
2021/12/12 10:01:40;;;;;;;;;;;-0.10;99.90;;;;;;2631710;46;19987;-76
2021/12/12 10:04:18;;;;;;;;;;;0.00;99.90;;;;;;2631034;54;19943;-77
2021/12/12 10:07:06;;;;;;;;;;;0.10;99.90;;;;;;2632453;46;20509;-77
2021/12/12 10:09:40;;;;;;;;;;;0.20;99.90;;;;;;2706011;31;20540;-78
2021/12/12 10:12:12;;;;;;;;;;;0.30;99.90;;;;;;2630619;54;20457;-78
2021/12/12 10:14:45;;;;;;;;;;;0.40;99.90;;;;;;2630720;54;19919;-78
2021/12/12 10:17:16;;;;;;;;;;;0.50;99.90;;;;;;2630547;39;20361;-79
2021/12/12 10:19:51;;;;;;;;;;;0.60;99.90;;;;;;2631599;46;20560;-79
2021/12/12 10:22:25;;;;;;;;;;;0.60;99.90;;;;;;2631035;54;19942;-78
2021/12/12 10:25:06;;;;;;;;;;;0.70;99.90;;;;;;2630485;54;19943;-80
2021/12/12 10:27:43;;;;;;;;;;;0.80;99.90;;;;;;2630886;54;19987;-79
2021/12/12 10:30:17;;;;;;;;;;;0.70;99.90;;;;;;2629811;54;19939;-76
2021/12/12 10:32:50;;;;;;;;;;;0.80;99.90;;;;;;2630221;46;20367;-76
2021/12/12 10:35:22;;;;;;;;;;;0.90;99.90;;;;;;2629682;54;19954;-77
2021/12/12 10:37:54;;;;;;;;;;;1.00;99.90;;;;;;2632057;46;19951;-75
2021/12/12 10:40:33;;;;;;;;;;;1.00;99.90;;;;;;2632235;46;19929;-78
2021/12/12 10:43:06;;;;;;;;;;;1.00;99.90;;;;;;2631252;54;19938;-76
2021/12/12 10:45:39;;;;;;;;;;;1.10;99.90;;;;;;2631123;54;20429;-78
2021/12/12 10:48:10;;;;;;;;;;;1.20;99.90;;;;;;2629584;54;19949;-76
2021/12/12 10:50:42;;;;;;;;;;;1.30;99.90;;;;;;2632153;46;19939;-77
2021/12/12 10:53:14;;;;;;;;;;;1.30;99.90;;;;;;2631580;54;19934;-76
2021/12/12 10:55:53;;;;;;;;;;;1.30;99.90;;;;;;2631579;54;19938;-79
2021/12/12 10:58:26;;;;;;;;;;;1.30;99.90;;;;;;2631388;54;19923;-78
2021/12/12 11:00:57;;;;;;;;;;;1.30;99.90;;;;;;2631591;54;19931;-77
2021/12/12 11:03:30;;;;;;;;;;;1.30;99.90;;;;;;2631345;54;19923;-76
2021/12/12 11:06:04;;;;;;;;;;;1.20;99.90;;;;;;2631403;54;20450;-78
2021/12/12 11:08:38;;;;;;;;;;;1.20;99.90;;;;;;2631360;54;19945;-76
2021/12/12 11:11:17;;;;;;;;;;;1.20;99.90;;;;;;2621447;54;19926;31
2021/12/12 11:13:51;;;;;;;;;;;1.10;99.90;;;;;;2632350;46;19946;-77
2021/12/12 11:16:29;;;;;;;;;;;1.00;99.90;;;;;;2631254;54;19945;-76
2021/12/12 11:19:03;;;;;;;;;;;0.90;99.90;;;;;;2630940;54;19925;-77
2021/12/12 11:21:36;;;;;;;;;;;1.00;99.90;;;;;;2632103;46;19923;-77
2021/12/12 11:24:11;;;;;;;;;;;0.90;99.90;;;;;;2625999;46;20026;31
2021/12/12 11:26:46;;;;;;;;;;;0.90;99.90;;;;;;2631467;46;19979;-77
2021/12/12 11:29:19;;;;;;;;;;;0.90;99.90;;;;;;2631676;54;19995;-78
2021/12/12 11:31:50;;;;;;;;;;;1.00;99.90;;;;;;2627219;54;19978;31
2021/12/12 11:34:44;;;;;;;;;;;1.00;99.90;;;;;;2617404;54;19923;31
2021/12/12 11:37:20;;;;;;;;;;;1.10;99.90;;;;;;2616666;46;20705;31
2021/12/12 11:39:52;;;;;;;;;;;1.10;99.90;;;;;;2616934;54;19986;-77
2021/12/12 11:42:29;;;;;;;;;;;1.20;99.90;;;;;;2617770;54;19981;31
2021/12/12 11:45:03;;;;;;;;;;;1.20;99.90;;;;;;2631649;47;19926;-77
2021/12/12 11:47:38;;;;;;;;;;;1.30;99.90;;;;;;2631526;54;19995;-76
2021/12/12 11:50:10;;;;;;;;;;;1.30;99.90;;;;;;2622743;47;19950;-77
2021/12/12 11:52:45;;;;;;;;;;;1.50;99.90;;;;;;2631677;47;19923;-77
2021/12/12 11:55:21;;;;;;;;;;;1.60;99.90;;;;;;2632672;47;20033;-77
2021/12/12 11:58:03;;;;;;;;;;;1.60;99.90;;;;;;2631337;54;20507;31
2021/12/12 12:00:35;;;;;;;;;;;1.70;99.90;;;;;;2631452;54;19934;-79
2021/12/12 12:03:21;;;;;;;;;;;1.70;99.90;;;;;;2631931;54;19945;-77
2021/12/12 12:05:55;;;;;;;;;;;1.80;99.90;;;;;;2631972;54;19923;-77
2021/12/12 12:08:29;;;;;;;;;;;1.90;99.90;;;;;;2631823;54;20027;-77
2021/12/12 12:11:08;;;;;;;;;;;1.90;99.90;;;;;;2638557;39;20323;-78
2021/12/12 12:13:58;;;;;;;;;;;2.00;99.90;;;;;;2632434;46;19939;-78
2021/12/12 12:16:36;;;;;;;;;;;2.00;99.90;;;;;;2630728;54;20012;-77
2021/12/12 12:19:10;;;;;;;;;;;2.00;99.90;;;;;;2632061;46;19938;-77
2021/12/12 12:21:49;;;;;;;;;;;2.10;99.90;;;;;;2630646;54;19994;-75
2021/12/12 12:24:26;;;;;;;;;;;2.10;99.90;;;;;;2630595;54;19986;-76
2021/12/12 12:27:02;;;;;;;;;;;2.10;99.90;;;;;;2630456;54;20390;-77
2021/12/12 12:29:54;;;;;;;;;;;2.10;99.90;;;;;;2630446;54;19964;-75
2021/12/12 12:32:40;;;;;;;;;;;2.10;99.90;;;;;;2630124;54;19941;-77
2021/12/12 12:35:26;;;;;;;;;;;2.10;99.90;;;;;;2630254;54;19938;-77
2021/12/12 12:38:11;;;;;;;;;;;2.20;99.90;;;;;;2643838;39;20342;-77
2021/12/12 12:40:57;;;;;;;;;;;2.20;99.90;;;;;;2632184;46;19943;-76
2021/12/12 12:43:44;;;;;;;;;;;2.20;99.90;;;;;;2630350;54;19994;-77
2021/12/12 12:46:30;;;;;;;;;;;2.20;99.90;;;;;;2631476;46;19943;-77
2021/12/12 12:49:16;;;;;;;;;;;2.30;99.90;;;;;;2630337;54;19939;-76
2021/12/12 12:52:01;;;;;;;;;;;2.20;99.90;;;;;;2630452;54;19945;-78
2021/12/12 12:54:40;;;;;;;;;;;2.20;99.90;;;;;;2637292;39;20353;-77
2021/12/12 12:57:17;;;;;;;;;;;2.20;99.90;;;;;;2630144;54;19965;-76
2021/12/12 12:59:51;;;;;;;;;;;2.30;99.90;;;;;;2630244;54;19943;-76
2021/12/12 13:02:23;;;;;;;;;;;2.20;99.90;;;;;;2629276;54;22682;-76
2021/12/12 13:05:11;;;;;;;;;;;2.20;99.90;;;;;;2630769;54;19963;-78
2021/12/12 13:08:00;;;;;;;;;;;2.20;99.90;;;;;;2630453;54;19938;-76
2021/12/12 13:10:34;;;;;;;;;;;2.20;99.90;;;;;;2631195;46;19923;-76
2021/12/12 13:13:06;;;;;;;;;;;2.20;99.90;;;;;;2630134;54;19946;-76
2021/12/12 13:15:43;;;;;;;;;;;2.10;99.90;;;;;;2630695;46;20007;-77
2021/12/12 13:18:18;;;;;;;;;;;2.10;99.90;;;;;;2630016;54;19954;-77
2021/12/12 13:20:55;;;;;;;;;;;2.00;99.90;;;;;;2631607;46;19927;-76
2021/12/12 13:23:32;;;;;;;;;;;2.00;99.90;;;;;;2630565;54;19943;-79
2021/12/12 13:26:12;;;;;;;;;;;1.90;99.90;;;;;;2630938;54;19938;-75
2021/12/12 13:28:51;;;;;;;;;;;1.90;99.90;;;;;;2634677;46;19942;-78
2021/12/12 13:31:27;;;;;;;;;;;1.80;99.90;;;;;;2631469;46;20032;-79
2021/12/12 13:34:01;;;;;;;;;;;1.80;99.90;;;;;;2631629;46;19941;-77
2021/12/12 13:36:34;;;;;;;;;;;1.70;99.90;;;;;;2630495;54;19939;-77
2021/12/12 13:39:08;;;;;;;;;;;1.70;99.90;;;;;;2630729;54;19938;-77
2021/12/12 13:42:00;;;;;;;;;;;1.60;99.90;;;;;;2630643;54;19939;-76
2021/12/12 13:44:54;;;;;;;;;;;1.60;99.90;;;;;;2629961;54;19950;-76
2021/12/12 13:47:37;;;;;;;;;;;1.60;99.90;;;;;;2630313;54;19935;-77
2021/12/12 13:50:09;;;;;;;;;;;1.50;99.90;;;;;;2630444;54;19946;-76
2021/12/12 13:52:44;;;;;;;;;;;1.40;99.90;;;;;;2632950;39;20299;-77
2021/12/12 13:55:15;;;;;;;;;;;1.40;99.90;;;;;;2630584;54;19991;-76
2021/12/12 13:57:51;;;;;;;;;;;1.40;99.90;;;;;;2630758;46;19939;-77
2021/12/12 14:00:23;;;;;;;;;;;1.30;99.90;;;;;;2632895;39;20364;-78
2021/12/12 14:03:03;;;;;;;;;;;1.30;99.90;;;;;;2630715;54;19998;-76
2021/12/12 14:05:36;;;;;;;;;;;1.20;99.90;;;;;;2630712;54;20410;-76
2021/12/12 14:08:11;;;;;;;;;;;1.20;99.90;;;;;;2631719;46;20442;-77
2021/12/12 14:10:42;;;;;;;;;;;1.20;99.90;;;;;;2630976;54;19945;-76
2021/12/12 14:13:21;;;;;;;;;;;1.10;99.90;;;;;;2631160;54;19995;-78
2021/12/12 14:15:52;;;;;;;;;;;1.10;99.90;;;;;;2638775;46;20387;-76
2021/12/12 14:18:26;;;;;;;;;;;1.10;99.90;;;;;;2630650;54;19941;-77
2021/12/12 14:20:58;;;;;;;;;;;1.10;99.90;;;;;;2631045;54;19943;-77
2021/12/12 14:23:30;;;;;;;;;;;1.00;99.90;;;;;;2630964;54;19939;-77
2021/12/12 14:26:04;;;;;;;;;;;0.90;99.90;;;;;;2631237;46;19991;-77
2021/12/12 14:28:35;;;;;;;;;;;0.90;99.90;;;;;;2632441;46;19979;-77
2021/12/12 14:31:09;;;;;;;;;;;0.90;99.90;;;;;;2630885;54;19930;-78
2021/12/12 14:33:43;;;;;;;;;;;0.80;99.90;;;;;;2631561;46;19923;-77
2021/12/12 14:36:15;;;;;;;;;;;0.80;99.90;;;;;;2630740;54;19923;-75
2021/12/12 14:38:47;;;;;;;;;;;0.80;99.90;;;;;;2630741;54;19935;-78
2021/12/12 14:41:31;;;;;;;;;;;0.80;99.90;;;;;;2631196;54;19938;-76
2021/12/12 14:44:02;;;;;;;;;;;0.70;99.90;;;;;;2633539;46;19964;-77
2021/12/12 14:46:35;;;;;;;;;;;0.70;99.90;;;;;;2630560;54;19942;-76
2021/12/12 14:49:12;;;;;;;;;;;0.60;99.90;;;;;;2634083;39;20323;-76
2021/12/12 14:51:53;;;;;;;;;;;0.60;99.90;;;;;;2632784;46;19945;-77
2021/12/12 14:54:37;;;;;;;;;;;0.50;99.90;;;;;;2630856;54;19933;-78
2021/12/12 14:57:08;;;;;;;;;;;0.40;99.90;;;;;;2630875;39;20334;-77
2021/12/12 14:59:43;;;;;;;;;;;0.40;99.90;;;;;;2630338;54;19929;-76
2021/12/12 15:02:16;;;;;;;;;;;0.30;99.90;;;;;;2633217;39;20406;-76
2021/12/12 15:04:57;;;;;;;;;;;0.30;99.90;;;;;;2629465;54;19950;-77
2021/12/12 15:07:32;;;;;;;;;;;0.20;99.90;;;;;;2630527;54;19938;-77
2021/12/12 15:10:09;;;;;;;;;;;0.20;99.90;;;;;;2630643;54;19990;-76
2021/12/12 15:12:41;;;;;;;;;;;0.10;99.90;;;;;;2630468;54;19939;-77
2021/12/12 15:15:16;;;;;;;;;;;0.10;99.90;;;;;;2630451;54;19987;-78
2021/12/12 15:17:53;;;;;;;;;;;0.10;99.90;;;;;;2630470;54;19938;-77
2021/12/12 15:20:30;;;;;;;;;;;0.00;99.90;;;;;;2630322;54;19946;-77
2021/12/12 15:23:03;;;;;;;;;;;0.00;99.90;;;;;;2630247;54;19938;-77
2021/12/12 15:25:36;;;;;;;;;;;0.00;99.90;;;;;;2630244;54;19948;-75